首页
METAR-TAF:

METAR-TAF

机场 :

福賈, 意大利

纬度: 41-32N, 经度: 015-43E, 海拔: 57米

当前天气观测

该预报发布于49分钟前的10:55 UTC
风速3节,风向西
温度 10°C
湿度 76%
气压 1019 hPa
能見度: 5000
轻雾

METAR: LIBA 261055Z 27003KT 5000 BR NSC 10/06 Q1019 RMK BKN BKN200 VIS MIN 5000 WIND THR11 28004KT WIND THR29 /////KT WHT

时间: 12:44 (11:44 UTC)

预报

该预报发布于44分钟前的11:00 UTC
预报有效从26日的 12点(UTC)到 26日的 21点(UTC)
风速8节,风向西
能見度: 7000
少量云层高于3000英尺
散云层高于6000英尺
几率 40% :
短暂存在
从 26日的 14点(UTC)到 26日的 17点(UTC)
能見度: 5000
散云层高于3000英尺
多云层高于6000英尺
成为
从 26日的 18点(UTC)到 26日的 20点(UTC)
能見度: 5000
散云层高于2000英尺
多云层高于5000英尺

TAF: LIBA 261100Z 2612/2621 28008KT 7000 FEW030 SCT060 PROB40 TEMPO 2614/2617 5000 RA SCT030 BKN060 BECMG 2618/2620 5000 RA SCT020 BKN050

超过4000个机场的气象观测和天气预报(METAR&TAF报告)。

可查询的气象台以黄色和红色小点在地图上表示。

将鼠标移到小点上方,可查看气象台名称。

然后点击查看天气观测和预报。

如需切换地图:点击带黑十字的绿色按钮放大地图;点击带横线的绿色按钮缩小地图;或者点击绿色箭头查看邻近地区的地图。


METAR-TAF: